sensor_id;sensor_type;location;lat;lon;timestamp;temperature;humidity
70839;DHT22;58464;52.298;4.852;2022-10-16T00:01:15;14.18;81.10
70839;DHT22;58464;52.298;4.852;2022-10-16T00:03:42;14.18;81.07
70839;DHT22;58464;52.298;4.852;2022-10-16T00:06:08;14.15;81.13
70839;DHT22;58464;52.298;4.852;2022-10-16T00:08:35;14.18;80.77
70839;DHT22;58464;52.298;4.852;2022-10-16T00:11:09;14.16;81.10
70839;DHT22;58464;52.298;4.852;2022-10-16T00:13:35;14.18;80.70
70839;DHT22;58464;52.298;4.852;2022-10-16T00:16:01;14.19;80.39
70839;DHT22;58464;52.298;4.852;2022-10-16T00:18:27;14.13;80.30
70839;DHT22;58464;52.298;4.852;2022-10-16T00:20:53;14.19;80.46
70839;DHT22;58464;52.298;4.852;2022-10-16T00:23:19;14.13;80.05
70839;DHT22;58464;52.298;4.852;2022-10-16T00:25:54;14.12;80.00
70839;DHT22;58464;52.298;4.852;2022-10-16T00:28:20;14.18;80.02
70839;DHT22;58464;52.298;4.852;2022-10-16T00:30:45;14.22;79.92
70839;DHT22;58464;52.298;4.852;2022-10-16T00:33:10;14.16;79.83
70839;DHT22;58464;52.298;4.852;2022-10-16T00:35:36;14.18;79.81
70839;DHT22;58464;52.298;4.852;2022-10-16T00:38:01;14.16;79.69
70839;DHT22;58464;52.298;4.852;2022-10-16T00:40:28;14.13;79.61
70839;DHT22;58464;52.298;4.852;2022-10-16T00:42:53;14.15;79.38
70839;DHT22;58464;52.298;4.852;2022-10-16T00:45:18;14.13;79.89
70839;DHT22;58464;52.298;4.852;2022-10-16T00:47:45;14.02;79.69
70839;DHT22;58464;52.298;4.852;2022-10-16T00:52:55;14.01;79.87
70839;DHT22;58464;52.298;4.852;2022-10-16T00:55:21;13.98;79.84
70839;DHT22;58464;52.298;4.852;2022-10-16T00:57:48;14.01;80.30
70839;DHT22;58464;52.298;4.852;2022-10-16T01:00:18;14.04;79.72
70839;DHT22;58464;52.298;4.852;2022-10-16T01:02:44;13.99;79.45
70839;DHT22;58464;52.298;4.852;2022-10-16T01:05:10;14.04;79.66
70839;DHT22;58464;52.298;4.852;2022-10-16T01:13:07;13.92;80.03
70839;DHT22;58464;52.298;4.852;2022-10-16T01:15:42;13.97;80.12
70839;DHT22;58464;52.298;4.852;2022-10-16T01:18:23;13.97;80.16
70839;DHT22;58464;52.298;4.852;2022-10-16T01:20:54;13.86;80.15
70839;DHT22;58464;52.298;4.852;2022-10-16T01:28:49;13.92;79.63
70839;DHT22;58464;52.298;4.852;2022-10-16T01:31:19;13.92;79.71
70839;DHT22;58464;52.298;4.852;2022-10-16T01:33:54;13.95;79.40
70839;DHT22;58464;52.298;4.852;2022-10-16T01:36:24;13.86;79.80
70839;DHT22;58464;52.298;4.852;2022-10-16T01:38:54;13.82;80.15
70839;DHT22;58464;52.298;4.852;2022-10-16T01:41:27;13.77;80.13
70839;DHT22;58464;52.298;4.852;2022-10-16T01:44:04;13.74;80.38
70839;DHT22;58464;52.298;4.852;2022-10-16T01:46:31;13.81;80.48
70839;DHT22;58464;52.298;4.852;2022-10-16T01:48:59;13.88;80.52
70839;DHT22;58464;52.298;4.852;2022-10-16T01:51:26;13.85;80.37
70839;DHT22;58464;52.298;4.852;2022-10-16T01:53:54;13.88;80.50
70839;DHT22;58464;52.298;4.852;2022-10-16T01:56:21;13.83;80.68
70839;DHT22;58464;52.298;4.852;2022-10-16T01:58:54;13.89;81.00
70839;DHT22;58464;52.298;4.852;2022-10-16T02:01:23;13.81;81.29
70839;DHT22;58464;52.298;4.852;2022-10-16T02:03:52;13.85;81.57
70839;DHT22;58464;52.298;4.852;2022-10-16T02:06:19;13.82;81.76
70839;DHT22;58464;52.298;4.852;2022-10-16T02:08:45;13.83;81.73
70839;DHT22;58464;52.298;4.852;2022-10-16T02:11:10;13.83;82.23
70839;DHT22;58464;52.298;4.852;2022-10-16T02:13:40;13.85;82.27
70839;DHT22;58464;52.298;4.852;2022-10-16T02:16:09;13.91;82.24
70839;DHT22;58464;52.298;4.852;2022-10-16T02:18:35;13.86;82.49
70839;DHT22;58464;52.298;4.852;2022-10-16T02:26:25;13.82;83.29
70839;DHT22;58464;52.298;4.852;2022-10-16T02:28:57;13.77;83.72
70839;DHT22;58464;52.298;4.852;2022-10-16T02:31:31;13.71;84.29
70839;DHT22;58464;52.298;4.852;2022-10-16T02:33:59;13.68;84.42
70839;DHT22;58464;52.298;4.852;2022-10-16T02:36:26;13.62;84.89
70839;DHT22;58464;52.298;4.852;2022-10-16T02:38:53;13.55;85.12
70839;DHT22;58464;52.298;4.852;2022-10-16T02:41:20;13.51;85.22
70839;DHT22;58464;52.298;4.852;2022-10-16T02:43:46;13.47;85.42
70839;DHT22;58464;52.298;4.852;2022-10-16T02:46:11;13.48;85.35
70839;DHT22;58464;52.298;4.852;2022-10-16T02:48:36;13.50;85.72
70839;DHT22;58464;52.298;4.852;2022-10-16T02:51:02;13.46;85.35
70839;DHT22;58464;52.298;4.852;2022-10-16T02:53:27;13.48;85.36
70839;DHT22;58464;52.298;4.852;2022-10-16T02:55:53;13.46;85.42
70839;DHT22;58464;52.298;4.852;2022-10-16T02:58:18;13.39;85.54
70839;DHT22;58464;52.298;4.852;2022-10-16T03:00:43;13.36;85.80
70839;DHT22;58464;52.298;4.852;2022-10-16T03:03:09;13.33;86.21
70839;DHT22;58464;52.298;4.852;2022-10-16T03:05:34;13.41;85.89
70839;DHT22;58464;52.298;4.852;2022-10-16T03:07:59;13.39;85.87
70839;DHT22;58464;52.298;4.852;2022-10-16T03:10:26;13.36;85.89
70839;DHT22;58464;52.298;4.852;2022-10-16T03:12:52;13.30;86.16
70839;DHT22;58464;52.298;4.852;2022-10-16T03:15:17;13.36;86.11
70839;DHT22;58464;52.298;4.852;2022-10-16T03:17:42;13.31;86.20
70839;DHT22;58464;52.298;4.852;2022-10-16T03:20:08;13.27;86.39
70839;DHT22;58464;52.298;4.852;2022-10-16T03:22:34;13.21;86.57
70839;DHT22;58464;52.298;4.852;2022-10-16T03:24:59;13.21;86.51
70839;DHT22;58464;52.298;4.852;2022-10-16T03:27:25;13.16;86.68
70839;DHT22;58464;52.298;4.852;2022-10-16T03:29:50;13.19;86.78
70839;DHT22;58464;52.298;4.852;2022-10-16T03:32:15;13.20;86.88
70839;DHT22;58464;52.298;4.852;2022-10-16T03:34:41;13.19;86.65
70839;DHT22;58464;52.298;4.852;2022-10-16T03:37:06;13.23;86.69
70839;DHT22;58464;52.298;4.852;2022-10-16T03:39:31;13.33;86.57
70839;DHT22;58464;52.298;4.852;2022-10-16T03:41:57;13.27;86.47
70839;DHT22;58464;52.298;4.852;2022-10-16T03:44:22;13.24;86.62
70839;DHT22;58464;52.298;4.852;2022-10-16T03:46:48;13.23;86.77
70839;DHT22;58464;52.298;4.852;2022-10-16T03:49:13;13.16;86.72
70839;DHT22;58464;52.298;4.852;2022-10-16T03:51:38;13.17;86.98
70839;DHT22;58464;52.298;4.852;2022-10-16T03:54:04;13.11;86.95
70839;DHT22;58464;52.298;4.852;2022-10-16T03:56:29;13.11;87.12
70839;DHT22;58464;52.298;4.852;2022-10-16T03:58:54;13.14;87.03
70839;DHT22;58464;52.298;4.852;2022-10-16T04:01:20;13.16;87.00
70839;DHT22;58464;52.298;4.852;2022-10-16T04:03:45;13.21;86.98
70839;DHT22;58464;52.298;4.852;2022-10-16T04:06:10;13.14;87.06
70839;DHT22;58464;52.298;4.852;2022-10-16T04:08:36;13.16;87.17
70839;DHT22;58464;52.298;4.852;2022-10-16T04:11:02;13.14;87.26
70839;DHT22;58464;52.298;4.852;2022-10-16T04:13:28;13.19;87.36
70839;DHT22;58464;52.298;4.852;2022-10-16T04:15:53;13.23;86.90
70839;DHT22;58464;52.298;4.852;2022-10-16T04:18:18;13.20;86.82
70839;DHT22;58464;52.298;4.852;2022-10-16T04:20:44;13.20;86.99
70839;DHT22;58464;52.298;4.852;2022-10-16T04:23:09;13.28;86.75
70839;DHT22;58464;52.298;4.852;2022-10-16T04:25:36;13.31;86.95
70839;DHT22;58464;52.298;4.852;2022-10-16T04:28:02;13.28;86.74
70839;DHT22;58464;52.298;4.852;2022-10-16T04:30:27;13.33;86.67
70839;DHT22;58464;52.298;4.852;2022-10-16T04:32:53;13.37;86.43
70839;DHT22;58464;52.298;4.852;2022-10-16T04:35:20;13.39;86.34
70839;DHT22;58464;52.298;4.852;2022-10-16T04:37:45;13.37;86.54
70839;DHT22;58464;52.298;4.852;2022-10-16T04:40:11;13.43;86.59
70839;DHT22;58464;52.298;4.852;2022-10-16T04:42:37;13.40;86.65
70839;DHT22;58464;52.298;4.852;2022-10-16T04:45:03;13.44;86.63
70839;DHT22;58464;52.298;4.852;2022-10-16T04:47:29;13.46;86.62
70839;DHT22;58464;52.298;4.852;2022-10-16T04:49:54;13.40;86.62
70839;DHT22;58464;52.298;4.852;2022-10-16T04:52:20;13.37;86.90
70839;DHT22;58464;52.298;4.852;2022-10-16T04:54:46;13.40;86.87
70839;DHT22;58464;52.298;4.852;2022-10-16T04:57:12;13.41;86.93
70839;DHT22;58464;52.298;4.852;2022-10-16T04:59:37;13.40;87.19
70839;DHT22;58464;52.298;4.852;2022-10-16T05:02:03;13.40;87.44
70839;DHT22;58464;52.298;4.852;2022-10-16T05:04:28;13.41;88.13
70839;DHT22;58464;52.298;4.852;2022-10-16T05:06:54;13.36;88.38
70839;DHT22;58464;52.298;4.852;2022-10-16T05:09:19;13.39;88.28
70839;DHT22;58464;52.298;4.852;2022-10-16T05:11:45;13.33;88.64
70839;DHT22;58464;52.298;4.852;2022-10-16T05:14:10;13.40;89.44
70839;DHT22;58464;52.298;4.852;2022-10-16T05:16:35;13.30;88.98
70839;DHT22;58464;52.298;4.852;2022-10-16T05:19:01;13.31;89.30
70839;DHT22;58464;52.298;4.852;2022-10-16T05:21:26;13.30;89.19
70839;DHT22;58464;52.298;4.852;2022-10-16T05:23:53;13.33;89.43
70839;DHT22;58464;52.298;4.852;2022-10-16T05:26:19;13.23;89.72
70839;DHT22;58464;52.298;4.852;2022-10-16T05:28:44;13.21;90.05
70839;DHT22;58464;52.298;4.852;2022-10-16T05:31:10;13.26;89.62
70839;DHT22;58464;52.298;4.852;2022-10-16T05:33:35;13.24;89.81
70839;DHT22;58464;52.298;4.852;2022-10-16T05:36:05;13.26;89.95
70839;DHT22;58464;52.298;4.852;2022-10-16T05:38:33;13.27;89.86
70839;DHT22;58464;52.298;4.852;2022-10-16T05:40:59;13.27;90.00
70839;DHT22;58464;52.298;4.852;2022-10-16T05:43:24;13.34;89.78
70839;DHT22;58464;52.298;4.852;2022-10-16T05:45:58;13.34;89.92
70839;DHT22;58464;52.298;4.852;2022-10-16T05:48:24;13.33;90.00
70839;DHT22;58464;52.298;4.852;2022-10-16T05:51:02;13.39;89.83
70839;DHT22;58464;52.298;4.852;2022-10-16T05:53:30;13.40;89.94
70839;DHT22;58464;52.298;4.852;2022-10-16T05:55:56;13.41;90.15
70839;DHT22;58464;52.298;4.852;2022-10-16T05:58:22;13.39;89.65
70839;DHT22;58464;52.298;4.852;2022-10-16T06:01:03;13.33;89.85
70839;DHT22;58464;52.298;4.852;2022-10-16T06:03:29;13.31;89.87
70839;DHT22;58464;52.298;4.852;2022-10-16T06:05:55;13.34;90.02
70839;DHT22;58464;52.298;4.852;2022-10-16T06:08:21;13.31;90.21
70839;DHT22;58464;52.298;4.852;2022-10-16T06:10:47;13.30;90.10
70839;DHT22;58464;52.298;4.852;2022-10-16T06:13:13;13.27;90.11
70839;DHT22;58464;52.298;4.852;2022-10-16T06:15:40;13.37;89.81
70839;DHT22;58464;52.298;4.852;2022-10-16T06:18:07;13.37;90.02
70839;DHT22;58464;52.298;4.852;2022-10-16T06:20:33;13.39;90.18
70839;DHT22;58464;52.298;4.852;2022-10-16T06:22:58;13.34;89.96
70839;DHT22;58464;52.298;4.852;2022-10-16T06:25:23;13.39;89.96
70839;DHT22;58464;52.298;4.852;2022-10-16T06:27:49;13.39;89.99
70839;DHT22;58464;52.298;4.852;2022-10-16T06:30:14;13.40;90.24
70839;DHT22;58464;52.298;4.852;2022-10-16T06:32:39;13.44;90.00
70839;DHT22;58464;52.298;4.852;2022-10-16T06:35:05;13.44;90.03
70839;DHT22;58464;52.298;4.852;2022-10-16T06:37:30;13.51;90.00
70839;DHT22;58464;52.298;4.852;2022-10-16T06:39:56;13.53;89.77
70839;DHT22;58464;52.298;4.852;2022-10-16T06:42:22;13.55;89.54
70839;DHT22;58464;52.298;4.852;2022-10-16T06:44:48;13.60;89.30
70839;DHT22;58464;52.298;4.852;2022-10-16T06:47:13;13.60;89.62
70839;DHT22;58464;52.298;4.852;2022-10-16T06:49:38;13.58;89.39
70839;DHT22;58464;52.298;4.852;2022-10-16T06:52:04;13.54;89.51
70839;DHT22;58464;52.298;4.852;2022-10-16T06:54:30;13.48;89.73
70839;DHT22;58464;52.298;4.852;2022-10-16T06:56:56;13.48;90.00
70839;DHT22;58464;52.298;4.852;2022-10-16T06:59:21;13.44;89.83
70839;DHT22;58464;52.298;4.852;2022-10-16T07:01:47;13.39;89.91
70839;DHT22;58464;52.298;4.852;2022-10-16T07:04:13;13.44;89.52
70839;DHT22;58464;52.298;4.852;2022-10-16T07:06:38;13.46;89.47
70839;DHT22;58464;52.298;4.852;2022-10-16T07:09:07;13.47;89.30
70839;DHT22;58464;52.298;4.852;2022-10-16T07:11:34;13.47;89.04
70839;DHT22;58464;52.298;4.852;2022-10-16T07:14:00;13.41;89.36
70839;DHT22;58464;52.298;4.852;2022-10-16T07:16:27;13.41;89.20
70839;DHT22;58464;52.298;4.852;2022-10-16T07:18:54;13.47;89.07
70839;DHT22;58464;52.298;4.852;2022-10-16T07:21:23;13.48;88.67
70839;DHT22;58464;52.298;4.852;2022-10-16T07:23:55;13.57;88.35
70839;DHT22;58464;52.298;4.852;2022-10-16T07:26:22;13.61;88.41
70839;DHT22;58464;52.298;4.852;2022-10-16T07:28:48;13.64;88.07
70839;DHT22;58464;52.298;4.852;2022-10-16T07:31:15;13.72;87.39
70839;DHT22;58464;52.298;4.852;2022-10-16T07:33:42;13.85;87.17
70839;DHT22;58464;52.298;4.852;2022-10-16T07:36:10;13.91;86.27
70839;DHT22;58464;52.298;4.852;2022-10-16T07:38:35;14.04;85.81
70839;DHT22;58464;52.298;4.852;2022-10-16T07:41:05;14.09;85.49
70839;DHT22;58464;52.298;4.852;2022-10-16T07:43:31;14.13;85.47
70839;DHT22;58464;52.298;4.852;2022-10-16T07:45:57;14.16;85.22
70839;DHT22;58464;52.298;4.852;2022-10-16T07:48:23;14.20;84.95
70839;DHT22;58464;52.298;4.852;2022-10-16T07:50:49;14.28;84.58
70839;DHT22;58464;52.298;4.852;2022-10-16T07:53:15;14.39;84.24
70839;DHT22;58464;52.298;4.852;2022-10-16T07:55:40;14.49;84.08
70839;DHT22;58464;52.298;4.852;2022-10-16T07:58:06;14.55;83.46
70839;DHT22;58464;52.298;4.852;2022-10-16T08:00:32;14.59;83.41
70839;DHT22;58464;52.298;4.852;2022-10-16T08:02:58;14.59;83.61
70839;DHT22;58464;52.298;4.852;2022-10-16T08:05:31;14.61;83.40
70839;DHT22;58464;52.298;4.852;2022-10-16T08:07:57;14.68;83.37
70839;DHT22;58464;52.298;4.852;2022-10-16T08:10:24;14.66;83.81
70839;DHT22;58464;52.298;4.852;2022-10-16T08:12:51;14.63;83.84
70839;DHT22;58464;52.298;4.852;2022-10-16T08:15:17;14.74;83.86
70839;DHT22;58464;52.298;4.852;2022-10-16T08:17:42;14.71;83.53
70839;DHT22;58464;52.298;4.852;2022-10-16T08:20:10;14.84;83.45
70839;DHT22;58464;52.298;4.852;2022-10-16T08:22:35;14.92;83.36
70839;DHT22;58464;52.298;4.852;2022-10-16T08:25:01;14.91;83.16
70839;DHT22;58464;52.298;4.852;2022-10-16T08:27:34;15.09;82.96
70839;DHT22;58464;52.298;4.852;2022-10-16T08:29:59;15.07;82.77
70839;DHT22;58464;52.298;4.852;2022-10-16T08:32:25;15.12;82.78
70839;DHT22;58464;52.298;4.852;2022-10-16T08:34:50;15.09;82.71
70839;DHT22;58464;52.298;4.852;2022-10-16T08:37:15;15.19;82.49
70839;DHT22;58464;52.298;4.852;2022-10-16T08:39:41;15.29;82.19
70839;DHT22;58464;52.298;4.852;2022-10-16T08:42:18;15.35;81.95
70839;DHT22;58464;52.298;4.852;2022-10-16T08:50:13;15.80;80.86
70839;DHT22;58464;52.298;4.852;2022-10-16T08:52:44;15.76;81.16
70839;DHT22;58464;52.298;4.852;2022-10-16T08:55:32;15.87;80.78
70839;DHT22;58464;52.298;4.852;2022-10-16T08:57:59;15.90;80.18
70839;DHT22;58464;52.298;4.852;2022-10-16T09:00:26;16.00;79.63
70839;DHT22;58464;52.298;4.852;2022-10-16T09:08:53;15.80;80.92
70839;DHT22;58464;52.298;4.852;2022-10-16T09:11:29;15.74;80.68
70839;DHT22;58464;52.298;4.852;2022-10-16T09:14:17;15.97;80.71
70839;DHT22;58464;52.298;4.852;2022-10-16T09:16:54;16.22;79.83
70839;DHT22;58464;52.298;4.852;2022-10-16T09:19:37;16.08;79.81
70839;DHT22;58464;52.298;4.852;2022-10-16T09:22:16;16.10;79.26
70839;DHT22;58464;52.298;4.852;2022-10-16T09:24:42;16.16;79.23
70839;DHT22;58464;52.298;4.852;2022-10-16T09:27:12;16.57;78.10
70839;DHT22;58464;52.298;4.852;2022-10-16T09:29:38;16.89;77.50
70839;DHT22;58464;52.298;4.852;2022-10-16T09:32:13;17.00;75.80
70839;DHT22;58464;52.298;4.852;2022-10-16T09:34:43;17.05;75.51
70839;DHT22;58464;52.298;4.852;2022-10-16T09:37:13;17.22;75.43
70839;DHT22;58464;52.298;4.852;2022-10-16T09:39:50;17.23;74.63
70839;DHT22;58464;52.298;4.852;2022-10-16T09:42:22;17.36;73.38
70839;DHT22;58464;52.298;4.852;2022-10-16T09:44:52;17.71;71.84
70839;DHT22;58464;52.298;4.852;2022-10-16T09:47:21;17.73;72.47
70839;DHT22;58464;52.298;4.852;2022-10-16T09:49:59;17.68;72.35
70839;DHT22;58464;52.298;4.852;2022-10-16T09:52:28;17.73;71.10
70839;DHT22;58464;52.298;4.852;2022-10-16T09:55:14;17.82;70.26
70839;DHT22;58464;52.298;4.852;2022-10-16T09:57:53;17.46;71.44
70839;DHT22;58464;52.298;4.852;2022-10-16T10:00:19;17.43;70.92
70839;DHT22;58464;52.298;4.852;2022-10-16T10:02:45;17.06;67.25
70839;DHT22;58464;52.298;4.852;2022-10-16T10:05:28;17.13;65.88
70839;DHT22;58464;52.298;4.852;2022-10-16T10:07:56;17.47;64.69
70839;DHT22;58464;52.298;4.852;2022-10-16T10:10:25;17.46;64.09
70839;DHT22;58464;52.298;4.852;2022-10-16T10:12:52;17.54;63.52
70839;DHT22;58464;52.298;4.852;2022-10-16T10:15:18;17.47;62.79
70839;DHT22;58464;52.298;4.852;2022-10-16T10:17:49;17.30;62.86
70839;DHT22;58464;52.298;4.852;2022-10-16T10:20:29;17.23;63.22
70839;DHT22;58464;52.298;4.852;2022-10-16T10:22:59;17.34;62.40
70839;DHT22;58464;52.298;4.852;2022-10-16T10:28:42;17.64;62.05
70839;DHT22;58464;52.298;4.852;2022-10-16T10:31:34;17.44;62.47
70839;DHT22;58464;52.298;4.852;2022-10-16T10:40:48;16.86;64.77
70839;DHT22;58464;52.298;4.852;2022-10-16T10:43:37;16.85;63.90
70839;DHT22;58464;52.298;4.852;2022-10-16T10:46:09;17.20;63.54
70839;DHT22;58464;52.298;4.852;2022-10-16T10:54:19;17.74;62.51
70839;DHT22;58464;52.298;4.852;2022-10-16T10:57:02;17.91;61.41
70839;DHT22;58464;52.298;4.852;2022-10-16T11:02:53;18.13;60.62
70839;DHT22;58464;52.298;4.852;2022-10-16T11:08:20;18.04;60.96
70839;DHT22;58464;52.298;4.852;2022-10-16T11:10:56;18.22;60.00
70839;DHT22;58464;52.298;4.852;2022-10-16T11:13:42;18.47;59.86
70839;DHT22;58464;52.298;4.852;2022-10-16T11:21:20;18.53;60.66
70839;DHT22;58464;52.298;4.852;2022-10-16T11:23:53;18.42;59.07
70839;DHT22;58464;52.298;4.852;2022-10-16T11:26:26;18.37;57.13
70839;DHT22;58464;52.298;4.852;2022-10-16T11:28:56;18.63;56.74
70839;DHT22;58464;52.298;4.852;2022-10-16T11:31:42;18.61;55.73
70839;DHT22;58464;52.298;4.852;2022-10-16T11:39:26;19.03;56.04
70839;DHT22;58464;52.298;4.852;2022-10-16T11:42:08;18.94;55.12
70839;DHT22;58464;52.298;4.852;2022-10-16T11:44:54;19.35;54.38
70839;DHT22;58464;52.298;4.852;2022-10-16T11:58:20;19.98;51.70
70839;DHT22;58464;52.298;4.852;2022-10-16T12:04:12;19.12;51.93
70839;DHT22;58464;52.298;4.852;2022-10-16T12:06:44;19.38;50.59
70839;DHT22;58464;52.298;4.852;2022-10-16T12:09:21;19.14;51.18
70839;DHT22;58464;52.298;4.852;2022-10-16T12:11:47;19.11;50.64
70839;DHT22;58464;52.298;4.852;2022-10-16T12:19:17;19.00;50.59
70839;DHT22;58464;52.298;4.852;2022-10-16T12:21:44;19.10;51.63
70839;DHT22;58464;52.298;4.852;2022-10-16T12:26:57;19.63;51.12
70839;DHT22;58464;52.298;4.852;2022-10-16T12:29:41;19.67;49.89
70839;DHT22;58464;52.298;4.852;2022-10-16T12:32:38;19.31;48.81
70839;DHT22;58464;52.298;4.852;2022-10-16T12:35:16;19.38;49.69
70839;DHT22;58464;52.298;4.852;2022-10-16T12:37:44;19.34;49.32
70839;DHT22;58464;52.298;4.852;2022-10-16T12:40:36;19.35;50.01
70839;DHT22;58464;52.298;4.852;2022-10-16T12:45:45;19.86;48.59
70839;DHT22;58464;52.298;4.852;2022-10-16T12:48:21;19.67;48.04
70839;DHT22;58464;52.298;4.852;2022-10-16T12:50:47;20.03;47.50
70839;DHT22;58464;52.298;4.852;2022-10-16T12:53:24;19.84;46.18
70839;DHT22;58464;52.298;4.852;2022-10-16T12:56:04;19.55;45.71
70839;DHT22;58464;52.298;4.852;2022-10-16T13:04:31;19.52;46.67
70839;DHT22;58464;52.298;4.852;2022-10-16T13:10:03;19.53;47.42
70839;DHT22;58464;52.298;4.852;2022-10-16T13:12:47;19.29;48.13
70839;DHT22;58464;52.298;4.852;2022-10-16T13:18:16;19.04;47.33
70839;DHT22;58464;52.298;4.852;2022-10-16T13:28:20;18.80;48.49
70839;DHT22;58464;52.298;4.852;2022-10-16T13:30:54;18.67;48.56
70839;DHT22;58464;52.298;4.852;2022-10-16T13:33:46;18.95;48.08
70839;DHT22;58464;52.298;4.852;2022-10-16T13:36:27;18.95;47.93
70839;DHT22;58464;52.298;4.852;2022-10-16T13:41:37;19.10;48.69
70839;DHT22;58464;52.298;4.852;2022-10-16T13:44:04;18.78;47.70
70839;DHT22;58464;52.298;4.852;2022-10-16T13:46:30;18.56;48.44
70839;DHT22;58464;52.298;4.852;2022-10-16T13:49:04;18.71;49.52
70839;DHT22;58464;52.298;4.852;2022-10-16T13:51:31;18.60;49.12
70839;DHT22;58464;52.298;4.852;2022-10-16T13:53:57;18.70;49.45
70839;DHT22;58464;52.298;4.852;2022-10-16T13:56:27;18.57;50.36
70839;DHT22;58464;52.298;4.852;2022-10-16T13:59:04;18.68;51.14
70839;DHT22;58464;52.298;4.852;2022-10-16T14:01:35;18.59;51.83
70839;DHT22;58464;52.298;4.852;2022-10-16T14:04:08;18.56;52.65
70839;DHT22;58464;52.298;4.852;2022-10-16T14:06:36;18.64;53.44
70839;DHT22;58464;52.298;4.852;2022-10-16T14:09:13;18.53;54.11
70839;DHT22;58464;52.298;4.852;2022-10-16T14:11:50;18.66;53.66
70839;DHT22;58464;52.298;4.852;2022-10-16T14:14:17;18.45;54.12
70839;DHT22;58464;52.298;4.852;2022-10-16T14:16:44;18.42;53.98
70839;DHT22;58464;52.298;4.852;2022-10-16T14:19:22;18.37;53.63
70839;DHT22;58464;52.298;4.852;2022-10-16T14:21:51;18.33;53.09
70839;DHT22;58464;52.298;4.852;2022-10-16T14:24:33;18.19;54.57
70839;DHT22;58464;52.298;4.852;2022-10-16T14:27:00;18.09;53.99
70839;DHT22;58464;52.298;4.852;2022-10-16T14:29:28;18.13;54.31
70839;DHT22;58464;52.298;4.852;2022-10-16T14:32:24;18.17;54.23
70839;DHT22;58464;52.298;4.852;2022-10-16T14:34:53;18.12;54.60
70839;DHT22;58464;52.298;4.852;2022-10-16T14:37:27;18.08;55.76
70839;DHT22;58464;52.298;4.852;2022-10-16T14:39:54;17.91;55.67
70839;DHT22;58464;52.298;4.852;2022-10-16T14:42:21;17.86;56.51
70839;DHT22;58464;52.298;4.852;2022-10-16T14:44:50;17.78;56.13
70839;DHT22;58464;52.298;4.852;2022-10-16T14:47:20;17.73;56.58
70839;DHT22;58464;52.298;4.852;2022-10-16T14:49:49;17.74;56.52
70839;DHT22;58464;52.298;4.852;2022-10-16T14:52:14;17.70;56.34
70839;DHT22;58464;52.298;4.852;2022-10-16T14:54:40;17.68;55.96
70839;DHT22;58464;52.298;4.852;2022-10-16T14:57:16;17.58;56.23
70839;DHT22;58464;52.298;4.852;2022-10-16T14:59:44;17.57;56.50
70839;DHT22;58464;52.298;4.852;2022-10-16T15:02:30;17.51;56.50
70839;DHT22;58464;52.298;4.852;2022-10-16T15:04:56;17.46;57.26
70839;DHT22;58464;52.298;4.852;2022-10-16T15:07:23;17.43;57.74
70839;DHT22;58464;52.298;4.852;2022-10-16T15:09:50;17.46;57.78
70839;DHT22;58464;52.298;4.852;2022-10-16T15:12:16;17.47;57.90
70839;DHT22;58464;52.298;4.852;2022-10-16T15:14:42;17.38;58.08
70839;DHT22;58464;52.298;4.852;2022-10-16T15:17:10;17.44;57.96
70839;DHT22;58464;52.298;4.852;2022-10-16T15:19:35;17.50;58.47
70839;DHT22;58464;52.298;4.852;2022-10-16T15:22:01;17.44;58.79
70839;DHT22;58464;52.298;4.852;2022-10-16T15:24:26;17.41;59.19
70839;DHT22;58464;52.298;4.852;2022-10-16T15:26:51;17.37;59.03
70839;DHT22;58464;52.298;4.852;2022-10-16T15:29:17;17.33;59.49
70839;DHT22;58464;52.298;4.852;2022-10-16T15:31:42;17.31;59.37
70839;DHT22;58464;52.298;4.852;2022-10-16T15:34:09;17.27;59.82
70839;DHT22;58464;52.298;4.852;2022-10-16T15:36:37;17.20;59.52
70839;DHT22;58464;52.298;4.852;2022-10-16T15:39:03;17.09;59.99
70839;DHT22;58464;52.298;4.852;2022-10-16T15:41:29;16.97;60.57
70839;DHT22;58464;52.298;4.852;2022-10-16T15:43:54;17.00;60.85
70839;DHT22;58464;52.298;4.852;2022-10-16T15:46:21;16.86;61.54
70839;DHT22;58464;52.298;4.852;2022-10-16T15:48:48;16.86;61.76
70839;DHT22;58464;52.298;4.852;2022-10-16T15:51:14;16.83;61.79
70839;DHT22;58464;52.298;4.852;2022-10-16T15:53:42;16.79;61.76
70839;DHT22;58464;52.298;4.852;2022-10-16T15:56:09;16.75;61.99
70839;DHT22;58464;52.298;4.852;2022-10-16T15:58:35;16.69;62.08
70839;DHT22;58464;52.298;4.852;2022-10-16T16:01:01;16.64;62.66
70839;DHT22;58464;52.298;4.852;2022-10-16T16:03:28;16.62;63.27
70839;DHT22;58464;52.298;4.852;2022-10-16T16:05:54;16.62;63.16
70839;DHT22;58464;52.298;4.852;2022-10-16T16:08:19;16.59;63.66
70839;DHT22;58464;52.298;4.852;2022-10-16T16:10:45;16.57;63.73
70839;DHT22;58464;52.298;4.852;2022-10-16T16:13:10;16.52;63.94
70839;DHT22;58464;52.298;4.852;2022-10-16T16:15:39;16.45;64.36
70839;DHT22;58464;52.298;4.852;2022-10-16T16:18:05;16.44;64.36
70839;DHT22;58464;52.298;4.852;2022-10-16T16:20:32;16.34;64.11
70839;DHT22;58464;52.298;4.852;2022-10-16T16:22:57;16.31;64.81
70839;DHT22;58464;52.298;4.852;2022-10-16T16:25:23;16.22;65.48
70839;DHT22;58464;52.298;4.852;2022-10-16T16:27:48;16.13;65.52
70839;DHT22;58464;52.298;4.852;2022-10-16T16:30:14;16.07;66.18
70839;DHT22;58464;52.298;4.852;2022-10-16T16:32:39;15.97;66.55
70839;DHT22;58464;52.298;4.852;2022-10-16T16:35:05;15.93;66.78
70839;DHT22;58464;52.298;4.852;2022-10-16T16:37:30;15.85;66.93
70839;DHT22;58464;52.298;4.852;2022-10-16T16:39:56;15.83;67.22
70839;DHT22;58464;52.298;4.852;2022-10-16T16:42:24;15.74;67.26
70839;DHT22;58464;52.298;4.852;2022-10-16T16:44:50;15.73;67.55
70839;DHT22;58464;52.298;4.852;2022-10-16T16:47:16;15.71;67.76
70839;DHT22;58464;52.298;4.852;2022-10-16T16:49:41;15.66;68.00
70839;DHT22;58464;52.298;4.852;2022-10-16T16:52:08;15.62;68.01
70839;DHT22;58464;52.298;4.852;2022-10-16T16:54:33;15.63;68.24
70839;DHT22;58464;52.298;4.852;2022-10-16T16:56:58;15.58;68.43
70839;DHT22;58464;52.298;4.852;2022-10-16T16:59:24;15.56;68.15
70839;DHT22;58464;52.298;4.852;2022-10-16T17:01:49;15.60;68.15
70839;DHT22;58464;52.298;4.852;2022-10-16T17:04:19;15.56;68.36
70839;DHT22;58464;52.298;4.852;2022-10-16T17:06:44;15.53;68.33
70839;DHT22;58464;52.298;4.852;2022-10-16T17:09:10;15.49;68.45
70839;DHT22;58464;52.298;4.852;2022-10-16T17:11:38;15.49;68.87
70839;DHT22;58464;52.298;4.852;2022-10-16T17:14:06;15.46;69.33
70839;DHT22;58464;52.298;4.852;2022-10-16T17:16:34;15.53;69.80
70839;DHT22;58464;52.298;4.852;2022-10-16T17:19:01;15.50;70.22
70839;DHT22;58464;52.298;4.852;2022-10-16T17:21:28;15.53;70.06
70839;DHT22;58464;52.298;4.852;2022-10-16T17:23:55;15.49;70.30
70839;DHT22;58464;52.298;4.852;2022-10-16T17:26:20;15.52;70.41
70839;DHT22;58464;52.298;4.852;2022-10-16T17:28:51;15.49;70.81